Time,TemperatureF,DewpointF,PressureIn,WindDirection,WindDirectionDegrees,WindSpeedMPH,WindSpeedGustMPH,Humidity,HourlyPrecipIn,Conditions,Clouds,dailyrainin,SoftwareType,DateUTC
2013-09-12 00:14:00,70.0,69.0,29.97,NNW,348,0.0,0.0,97,0.00,,,0.05,,2013-09-12 04:14:00,
2013-09-12 00:24:00,70.0,69.0,29.96,NNW,348,0.0,0.0,98,0.00,,,0.05,,2013-09-12 04:24:00,
2013-09-12 00:44:00,70.0,69.0,29.96,NNW,348,0.0,0.0,98,0.00,,,0.05,,2013-09-12 04:44:00,
2013-09-12 00:54:00,70.0,69.0,29.96,NNW,348,0.0,0.0,98,0.00,,,0.05,,2013-09-12 04:54:00,
2013-09-12 01:13:00,70.0,69.0,29.95,NNW,348,0.0,0.0,98,0.00,,,0.05,,2013-09-12 05:13:00,
2013-09-12 01:23:00,70.0,69.0,29.94,NNW,348,0.0,0.0,98,0.00,,,0.05,,2013-09-12 05:23:00,
2013-09-12 01:43:00,70.0,69.0,29.94,NNW,348,0.0,0.0,98,0.00,,,0.05,,2013-09-12 05:43:00,
2013-09-12 01:53:00,70.0,69.0,29.94,NNW,348,0.0,0.0,98,0.00,,,0.05,,2013-09-12 05:53:00,
2013-09-12 02:02:00,70.0,69.0,29.94,NNW,348,0.0,0.0,98,0.00,,,0.05,,2013-09-12 06:02:00,
2013-09-12 02:12:00,70.0,69.0,29.94,NNW,348,0.0,0.0,98,0.00,,,0.05,,2013-09-12 06:12:00,
2013-09-12 02:22:00,70.0,69.0,29.93,NNW,348,0.0,0.0,98,0.00,,,0.05,,2013-09-12 06:22:00,
2013-09-12 02:42:00,70.0,69.0,29.93,NNW,348,0.0,0.0,98,0.00,,,0.05,,2013-09-12 06:42:00,
2013-09-12 02:52:00,70.0,69.0,29.94,NNW,348,0.0,0.0,98,0.00,,,0.05,,2013-09-12 06:52:00,
2013-09-12 03:12:00,70.0,69.0,29.94,NNW,348,0.0,0.0,98,0.00,,,0.05,,2013-09-12 07:12:00,
2013-09-12 03:22:00,70.0,70.0,29.94,NNW,348,0.0,0.0,99,0.01,,,0.06,,2013-09-12 07:22:00,
2013-09-12 03:43:00,70.0,70.0,29.94,NNW,348,0.0,0.0,99,0.01,,,0.06,,2013-09-12 07:43:00,
2013-09-12 03:52:00,70.0,70.0,29.94,SW,225,0.0,2.0,99,0.01,,,0.06,,2013-09-12 07:52:00,
2013-09-12 04:11:00,70.0,69.0,29.94,West,262,2.0,9.0,98,0.01,,,0.06,,2013-09-12 08:11:00,
2013-09-12 04:22:00,70.0,69.0,29.94,WSW,253,0.0,8.0,98,0.00,,,0.06,,2013-09-12 08:22:00,
2013-09-12 04:52:00,69.0,68.0,29.93,WSW,248,0.0,5.0,98,0.00,,,0.06,,2013-09-12 08:52:00,
2013-09-12 05:12:00,69.0,68.0,29.92,WSW,248,0.0,0.0,98,0.01,,,0.07,,2013-09-12 09:12:00,
2013-09-12 05:21:00,69.0,68.0,29.92,WSW,248,0.0,3.0,98,0.01,,,0.07,,2013-09-12 09:21:00,
2013-09-12 05:53:00,69.0,68.0,29.91,WSW,248,0.0,0.0,98,0.01,,,0.07,,2013-09-12 09:53:00,
2013-09-12 06:12:00,68.0,68.0,29.91,WSW,248,0.0,0.0,99,0.00,,,0.07,,2013-09-12 10:12:00,
2013-09-12 06:23:00,68.0,68.0,29.91,WSW,248,0.0,0.0,99,0.01,,,0.08,,2013-09-12 10:23:00,
2013-09-12 06:53:00,68.0,68.0,29.92,WSW,248,0.0,1.0,99,0.01,,,0.08,,2013-09-12 10:53:00,
2013-09-12 07:11:00,68.0,68.0,29.93,WSW,248,0.0,3.0,99,0.02,,,0.09,,2013-09-12 11:11:00,
2013-09-12 07:22:00,68.0,68.0,29.92,SW,232,0.0,2.0,99,0.01,,,0.09,,2013-09-12 11:22:00,
2013-09-12 07:52:00,68.0,68.0,29.93,West,279,0.0,5.0,99,0.01,,,0.09,,2013-09-12 11:52:00,
2013-09-12 08:12:00,68.0,68.0,29.92,WNW,290,0.0,3.0,99,0.00,,,0.09,,2013-09-12 12:12:00,
2013-09-12 08:22:00,68.0,68.0,29.92,WSW,239,0.0,4.0,99,0.00,,,0.09,,2013-09-12 12:22:00,
2013-09-12 08:42:00,69.0,69.0,29.92,SW,223,0.0,3.0,99,0.01,,,0.10,,2013-09-12 12:42:00,
2013-09-12 08:52:00,69.0,69.0,29.92,West,260,0.0,1.0,99,0.01,,,0.10,,2013-09-12 12:52:00,
2013-09-12 09:11:00,69.0,69.0,29.92,WSW,258,0.0,3.0,99,0.01,,,0.10,,2013-09-12 13:11:00,
2013-09-12 09:22:00,69.0,69.0,29.91,WSW,243,0.0,3.0,99,0.01,,,0.10,,2013-09-12 13:22:00,
2013-09-12 09:52:00,69.0,69.0,29.91,WNW,290,0.0,3.0,99,0.01,,,0.11,,2013-09-12 13:52:00,
2013-09-12 10:22:00,70.0,70.0,29.92,WSW,250,0.0,5.0,99,0.01,,,0.11,,2013-09-12 14:22:00,
2013-09-12 10:42:00,70.0,70.0,29.92,WSW,252,1.0,6.0,99,0.00,,,0.11,,2013-09-12 14:42:00,
2013-09-12 10:52:00,70.0,70.0,29.92,West,265,1.0,6.0,99,0.00,,,0.11,,2013-09-12 14:52:00,
2013-09-12 11:11:00,70.0,70.0,29.92,WNW,297,3.0,7.0,99,0.00,,,0.11,,2013-09-12 15:11:00,
2013-09-12 11:22:00,70.0,70.0,29.91,WSW,254,3.0,12.0,99,0.00,,,0.11,,2013-09-12 15:22:00,
2013-09-12 11:43:00,70.0,70.0,29.91,West,281,1.0,9.0,99,0.00,,,0.11,,2013-09-12 15:43:00,
2013-09-12 11:54:00,70.0,70.0,29.92,WSW,247,1.0,6.0,99,0.00,,,0.11,,2013-09-12 15:54:00,
2013-09-12 12:13:00,70.0,69.0,29.92,WNW,283,0.0,3.0,97,0.00,,,0.11,,2013-09-12 16:13:00,
2013-09-12 12:23:00,70.0,69.0,29.92,West,261,0.0,4.0,96,0.01,,,0.12,,2013-09-12 16:23:00,
2013-09-12 12:43:00,71.0,69.0,29.93,West,266,0.0,8.0,93,0.01,,,0.12,,2013-09-12 16:43:00,
2013-09-12 12:53:00,71.0,68.0,29.93,WNW,291,1.0,9.0,90,0.01,,,0.12,,2013-09-12 16:53:00,
2013-09-12 13:12:00,71.0,67.0,29.93,WSW,242,1.0,8.0,86,0.01,,,0.12,,2013-09-12 17:12:00,
2013-09-12 13:23:00,71.0,66.0,29.93,WNW,302,1.0,7.0,85,0.00,,,0.12,,2013-09-12 17:23:00,
2013-09-12 13:42:00,71.0,65.0,29.92,NNW,333,0.0,2.0,80,0.00,,,0.12,,2013-09-12 17:42:00,
2013-09-12 13:53:00,73.0,66.0,29.91,WSW,240,1.0,4.0,79,0.00,,,0.12,,2013-09-12 17:53:00,
2013-09-12 14:12:00,75.0,65.0,29.91,NW,315,1.0,6.0,71,0.01,,,0.13,,2013-09-12 18:12:00,
2013-09-12 14:22:00,77.0,60.0,29.90,North,5,2.0,8.0,56,0.01,,,0.13,,2013-09-12 18:22:00,
2013-09-12 14:42:00,78.0,57.0,29.90,North,9,3.0,10.0,48,0.01,,,0.13,,2013-09-12 18:42:00,
2013-09-12 14:52:00,79.0,58.0,29.89,North,5,2.0,7.0,49,0.01,,,0.13,,2013-09-12 18:52:00,
2013-09-12 15:12:00,79.0,56.0,29.88,WNW,292,0.0,4.0,46,0.00,,,0.13,,2013-09-12 19:12:00,
2013-09-12 15:22:00,79.0,59.0,29.87,West,273,2.0,6.0,50,0.00,,,0.13,,2013-09-12 19:22:00,
2013-09-12 15:52:00,80.0,59.0,29.86,WNW,300,2.0,7.0,48,0.00,,,0.13,,2013-09-12 19:52:00,
2013-09-12 16:12:00,81.0,57.0,29.85,NNW,327,3.0,7.0,44,0.00,,,0.13,,2013-09-12 20:12:00,
2013-09-12 16:22:00,81.0,58.0,29.85,NW,322,3.0,10.0,46,0.00,,,0.13,,2013-09-12 20:22:00,
2013-09-12 16:42:00,79.0,58.0,29.84,WNW,284,0.0,8.0,49,0.00,,,0.13,,2013-09-12 20:42:00,
2013-09-12 16:52:00,78.0,57.0,29.85,West,271,2.0,8.0,49,0.00,,,0.13,,2013-09-12 20:52:00,
2013-09-12 17:22:00,78.0,56.0,29.83,WNW,302,3.0,8.0,46,0.00,,,0.13,,2013-09-12 21:22:00,
2013-09-12 17:43:00,78.0,57.0,29.83,North,355,1.0,7.0,49,0.00,,,0.13,,2013-09-12 21:43:00,
2013-09-12 17:54:00,77.0,57.0,29.82,North,360,2.0,7.0,50,0.00,,,0.13,,2013-09-12 21:54:00,
2013-09-12 18:13:00,77.0,57.0,29.82,NNW,335,3.0,9.0,50,0.01,,,0.14,,2013-09-12 22:13:00,
2013-09-12 18:24:00,75.0,56.0,29.82,North,355,1.0,5.0,52,0.01,,,0.14,,2013-09-12 22:24:00,
2013-09-12 18:43:00,75.0,58.0,29.83,North,5,0.0,4.0,55,0.01,,,0.14,,2013-09-12 22:43:00,
2013-09-12 18:54:00,74.0,58.0,29.83,NW,308,0.0,4.0,57,0.01,,,0.14,,2013-09-12 22:54:00,
2013-09-12 19:12:00,74.0,58.0,29.84,NW,312,1.0,6.0,57,0.00,,,0.14,,2013-09-12 23:12:00,
2013-09-12 19:53:00,66.0,63.0,29.88,WNW,286,0.0,4.0,89,0.00,,,0.14,,2013-09-12 23:53:00,
2013-09-12 20:11:00,65.0,62.0,29.88,West,274,0.0,3.0,90,0.00,,,0.14,,2013-09-13 00:11:00,
2013-09-12 20:22:00,64.0,62.0,29.89,North,5,2.0,7.0,92,0.00,,,0.14,,2013-09-13 00:22:00,
2013-09-12 20:42:00,63.0,61.0,29.91,WNW,283,1.0,7.0,94,0.00,,,0.12,,2013-09-13 00:42:00,
2013-09-12 20:52:00,62.0,60.0,29.91,North,360,2.0,7.0,92,0.00,,,0.12,,2013-09-13 00:52:00,
2013-09-12 21:11:00,62.0,60.0,29.92,NNW,336,0.0,5.0,94,0.00,,,0.12,,2013-09-13 01:11:00,
2013-09-12 21:22:00,61.0,59.0,29.93,NNW,346,0.0,4.0,94,0.00,,,0.10,,2013-09-13 01:22:00,
2013-09-12 21:42:00,60.0,59.0,29.93,NNW,346,0.0,1.0,95,0.00,,,0.10,,2013-09-13 01:42:00,
2013-09-12 21:53:00,60.0,59.0,29.94,North,355,0.0,4.0,95,0.00,,,0.10,,2013-09-13 01:53:00,
2013-09-12 22:12:00,60.0,59.0,29.94,NNW,343,0.0,1.0,96,0.01,,,0.11,,2013-09-13 02:12:00,
2013-09-12 22:22:00,60.0,59.0,29.94,NNW,348,0.0,1.0,96,0.01,,,0.10,,2013-09-13 02:22:00,
2013-09-12 22:43:00,59.0,58.0,29.95,NNE,18,0.0,1.0,96,0.01,,,0.10,,2013-09-13 02:43:00,
2013-09-12 22:53:00,59.0,58.0,29.95,NW,307,0.0,5.0,96,0.01,,,0.10,,2013-09-13 02:53:00,
2013-09-12 23:12:00,58.0,57.0,29.95,North,351,0.0,4.0,96,0.00,,,0.10,,2013-09-13 03:12:00,
2013-09-12 23:22:00,58.0,57.0,29.96,North,360,0.0,5.0,96,0.00,,,0.10,,2013-09-13 03:22:00,
2013-09-12 23:55:00,58.0,57.0,29.96,NNE,17,2.0,7.0,96,0.00,,,0.10,,2013-09-13 03:55:00,